Time;durP1;ratioP1;P1;durP2;ratioP2;P2;SDS_P1;SDS_P2;PMS_P1;PMS_P2;Temp;Humidity;BMP_temperature;BMP_pressure;BME280_temperature;BME280_humidity;BME280_pressure;Samples;Min_cycle;Max_cycle;Signal;HPM_P1;HPM_P2
2021/04/23 00:02:18;;;;;;;15.05;5.32;;;9.10;99.90;;;;;;5024938;28;20116;-84
2021/04/23 00:04:43;;;;;;;10.18;4.90;;;9.10;99.90;;;;;;5030611;28;20021;-77
2021/04/23 00:07:09;;;;;;;11.15;6.13;;;9.30;99.90;;;;;;5029506;28;20066;-81
2021/04/23 00:09:36;;;;;;;14.30;5.80;;;9.40;99.90;;;;;;5030800;28;20385;-81
2021/04/23 00:12:08;;;;;;;15.13;5.97;;;9.40;99.90;;;;;;5029895;28;20025;-83
2021/04/23 00:14:47;;;;;;;18.27;6.22;;;9.50;99.90;;;;;;5030193;28;20484;-84
2021/04/23 00:17:13;;;;;;;14.45;6.25;;;9.50;99.90;;;;;;5029932;28;20503;-80
2021/04/23 00:19:40;;;;;;;13.70;6.80;;;9.60;99.90;;;;;;5027491;28;20033;-80
2021/04/23 00:22:08;;;;;;;12.07;6.32;;;9.60;99.90;;;;;;5033290;28;20191;-84
2021/04/23 00:24:35;;;;;;;9.90;5.70;;;9.80;99.90;;;;;;5034300;28;20025;-85
2021/04/23 00:27:02;;;;;;;9.75;6.38;;;9.90;99.90;;;;;;5033849;28;20160;-81
2021/04/23 00:29:27;;;;;;;14.80;6.18;;;10.00;99.90;;;;;;5034774;28;20030;-82
2021/04/23 00:34:40;;;;;;;12.90;6.25;;;10.10;99.90;;;;;;5031829;28;20106;-83
2021/04/23 00:37:06;;;;;;;12.18;6.07;;;10.20;99.90;;;;;;5033863;28;20025;-83
2021/04/23 00:39:32;;;;;;;8.98;5.50;;;10.30;99.90;;;;;;5034214;28;20040;-83
2021/04/23 00:41:58;;;;;;;14.50;5.60;;;10.40;99.90;;;;;;5033506;28;20496;-84
2021/04/23 00:44:24;;;;;;;10.55;6.05;;;10.40;99.90;;;;;;5033551;28;20029;-83
2021/04/23 00:46:50;;;;;;;9.40;5.55;;;10.50;99.90;;;;;;5033466;28;20431;-83
2021/04/23 00:49:15;;;;;;;12.60;6.00;;;10.50;99.90;;;;;;5033718;28;20029;-82
2021/04/23 00:51:46;;;;;;;11.82;5.57;;;10.60;99.90;;;;;;5033209;28;20032;-82
2021/04/23 00:54:12;;;;;;;12.70;5.68;;;10.70;99.90;;;;;;5033550;28;20033;-80
2021/04/23 00:56:40;;;;;;;14.20;5.72;;;10.70;99.90;;;;;;5033135;28;20071;-83
2021/04/23 00:59:08;;;;;;;18.58;5.60;;;10.80;99.90;;;;;;5033094;28;20310;-80
2021/04/23 01:01:40;;;;;;;9.18;5.40;;;10.80;99.90;;;;;;5033411;28;20708;-79
2021/04/23 01:04:10;;;;;;;5.82;4.68;;;10.90;99.90;;;;;;5041452;28;20039;-80
2021/04/23 01:06:37;;;;;;;8.63;5.60;;;10.90;99.90;;;;;;5056582;28;20081;-81
2021/04/23 01:09:24;;;;;;;11.15;5.45;;;10.90;99.90;;;;;;5047838;28;20025;-84
2021/04/23 01:11:51;;;;;;;13.73;5.67;;;10.90;99.90;;;;;;5032799;28;20045;-82
2021/04/23 01:14:18;;;;;;;9.60;5.10;;;11.00;99.90;;;;;;5053326;28;20020;-81
2021/04/23 01:16:45;;;;;;;7.17;5.07;;;11.00;99.90;;;;;;5056639;28;20022;-80
2021/04/23 01:19:14;;;;;;;11.60;4.90;;;11.00;99.90;;;;;;5052594;28;20041;-82
2021/04/23 01:21:40;;;;;;;14.93;5.05;;;11.00;99.90;;;;;;5031712;28;20056;-81
2021/04/23 01:24:08;;;;;;;14.23;5.30;;;11.00;99.90;;;;;;5043817;28;20120;-80
2021/04/23 01:26:38;;;;;;;11.40;5.03;;;10.90;99.90;;;;;;5034005;28;20068;-79
2021/04/23 01:29:06;;;;;;;9.65;4.85;;;10.80;99.90;;;;;;5042174;28;20430;-79
2021/04/23 01:31:35;;;;;;;10.25;5.30;;;10.80;99.90;;;;;;5031866;28;20064;-79
2021/04/23 01:34:29;;;;;;;11.38;5.05;;;10.70;99.90;;;;;;5032045;28;20026;-79
2021/04/23 01:36:55;;;;;;;9.30;5.75;;;10.60;99.90;;;;;;5028263;28;20159;-78
2021/04/23 01:39:24;;;;;;;22.02;5.97;;;10.60;99.90;;;;;;5032810;28;20443;-78
2021/04/23 01:41:55;;;;;;;8.07;4.22;;;10.60;99.90;;;;;;5032288;28;20045;-78
2021/04/23 01:44:23;;;;;;;8.45;4.80;;;10.70;99.90;;;;;;5030335;28;20032;-78
2021/04/23 01:46:49;;;;;;;10.32;5.55;;;10.60;99.90;;;;;;5032354;28;20030;-79
2021/04/23 01:49:19;;;;;;;9.55;4.90;;;10.60;99.90;;;;;;5032114;28;20108;-79
2021/04/23 01:51:48;;;;;;;14.32;5.82;;;10.40;99.90;;;;;;5031929;28;20553;-79
2021/04/23 01:54:15;;;;;;;13.48;5.53;;;10.30;99.90;;;;;;5032495;28;20041;-80
2021/04/23 01:56:42;;;;;;;10.90;6.05;;;10.20;99.90;;;;;;5029418;28;20040;-79
2021/04/23 01:59:09;;;;;;;15.82;6.03;;;10.20;99.90;;;;;;5032080;28;20117;-79
2021/04/23 02:01:35;;;;;;;25.95;7.70;;;10.10;99.90;;;;;;5031767;28;20040;-79
2021/04/23 02:04:04;;;;;;;16.52;6.50;;;9.90;99.90;;;;;;5032408;28;20116;-79
2021/04/23 02:06:31;;;;;;;11.65;7.13;;;9.80;99.90;;;;;;5031675;28;20436;-79
2021/04/23 02:08:57;;;;;;;12.03;6.07;;;9.70;99.90;;;;;;5032185;28;20498;-80
2021/04/23 02:11:23;;;;;;;14.80;6.57;;;9.60;99.90;;;;;;5046852;28;20037;-79
2021/04/23 02:13:51;;;;;;;11.27;6.50;;;9.60;99.90;;;;;;5031751;28;20025;-79
2021/04/23 02:16:19;;;;;;;11.18;7.15;;;9.50;99.90;;;;;;5031098;28;20802;-79
2021/04/23 02:18:46;;;;;;;10.23;6.68;;;9.50;99.90;;;;;;5034021;28;20120;-79
2021/04/23 02:21:13;;;;;;;17.90;7.40;;;9.40;99.90;;;;;;5034771;28;20084;-77
2021/04/23 02:23:42;;;;;;;10.95;6.28;;;9.40;99.90;;;;;;5031661;28;20032;-79
2021/04/23 02:26:08;;;;;;;9.88;6.50;;;9.40;99.90;;;;;;5031182;28;20068;-78
2021/04/23 02:28:34;;;;;;;9.77;6.53;;;9.40;99.90;;;;;;5031743;28;20033;-79
2021/04/23 02:31:08;;;;;;;13.00;6.50;;;9.50;99.90;;;;;;5028483;28;20035;-79
2021/04/23 02:33:34;;;;;;;10.27;5.22;;;9.50;99.90;;;;;;5030481;28;20049;-79
2021/04/23 02:36:00;;;;;;;11.10;5.70;;;9.60;99.90;;;;;;5025512;28;20068;-79
2021/04/23 02:38:26;;;;;;;9.77;4.90;;;9.70;99.90;;;;;;5031470;28;20703;-78
2021/04/23 02:40:54;;;;;;;8.93;5.15;;;9.80;99.90;;;;;;5031039;28;20072;-78
2021/04/23 02:43:21;;;;;;;;;;;9.80;99.90;;;;;;5031682;28;20096;-78
2021/04/23 02:45:49;;;;;;;7.20;4.97;;;9.90;99.90;;;;;;5030978;28;19944;-78
2021/04/23 02:48:15;;;;;;;11.13;5.35;;;9.90;99.90;;;;;;5031097;28;20021;-79
2021/04/23 02:50:53;;;;;;;9.88;5.65;;;9.90;99.90;;;;;;5028227;28;20499;-78
2021/04/23 02:53:19;;;;;;;17.73;5.20;;;9.90;99.90;;;;;;5029860;28;20511;-77
2021/04/23 02:55:45;;;;;;;10.93;5.47;;;9.90;99.90;;;;;;5031133;28;20029;-79
2021/04/23 02:58:15;;;;;;;12.85;5.60;;;10.00;99.90;;;;;;5030079;28;20449;-78
2021/04/23 03:00:44;;;;;;;11.27;6.65;;;10.00;99.90;;;;;;5028591;28;20009;-78
2021/04/23 03:03:11;;;;;;;9.63;6.10;;;9.90;99.90;;;;;;5031121;28;20076;-78
2021/04/23 03:05:40;;;;;;;11.10;6.75;;;9.80;99.90;;;;;;5030491;28;20392;-78
2021/04/23 03:08:07;;;;;;;13.27;6.05;;;9.80;99.90;;;;;;5030183;28;20029;-78
2021/04/23 03:10:40;;;;;;;13.82;6.80;;;9.70;99.90;;;;;;5030906;28;20108;-78
2021/04/23 03:13:12;;;;;;;12.07;6.60;;;9.60;99.90;;;;;;5029863;28;20076;-77
2021/04/23 03:15:40;;;;;;;13.88;6.53;;;9.70;99.90;;;;;;5030651;28;20022;-77
2021/04/23 03:18:10;;;;;;;13.93;6.50;;;9.70;99.90;;;;;;5030096;28;20022;-78
2021/04/23 03:20:36;;;;;;;12.27;7.32;;;9.70;99.90;;;;;;5030595;28;20496;-78
2021/04/23 03:23:03;;;;;;;10.98;7.05;;;9.60;99.90;;;;;;5030614;28;20031;-78
2021/04/23 03:25:31;;;;;;;13.87;6.97;;;9.50;99.90;;;;;;5030915;28;20025;-78
2021/04/23 03:27:57;;;;;;;14.20;8.10;;;9.50;99.90;;;;;;5029965;28;20484;-78
2021/04/23 03:30:27;;;;;;;14.40;8.40;;;9.40;99.90;;;;;;5030758;28;20025;-77
2021/04/23 03:32:53;;;;;;;11.35;7.38;;;9.30;99.90;;;;;;5030007;28;20037;-77
2021/04/23 03:35:19;;;;;;;13.35;7.90;;;9.30;99.90;;;;;;5030352;28;20542;-78
2021/04/23 03:37:46;;;;;;;17.33;7.68;;;9.10;99.90;;;;;;5030026;28;20033;-79
2021/04/23 03:40:14;;;;;;;9.88;7.05;;;9.10;99.90;;;;;;5030593;28;20014;-77
2021/04/23 03:42:40;;;;;;;15.68;7.07;;;9.00;99.90;;;;;;5030047;28;20107;-78
2021/04/23 03:45:08;;;;;;;13.15;6.55;;;9.10;99.90;;;;;;5030439;28;20022;-77
2021/04/23 03:47:34;;;;;;;15.35;6.75;;;9.10;99.90;;;;;;5030085;28;20511;-78
2021/04/23 03:50:00;;;;;;;11.80;7.15;;;9.10;99.90;;;;;;5030164;28;20276;-78
2021/04/23 03:52:26;;;;;;;25.05;6.28;;;9.10;99.90;;;;;;5030081;28;20033;-78
2021/04/23 03:54:52;;;;;;;11.55;6.05;;;9.10;99.90;;;;;;5029950;28;20023;-78
2021/04/23 03:57:17;;;;;;;23.63;7.25;;;9.10;99.90;;;;;;5029682;28;20545;-78
2021/04/23 03:59:46;;;;;;;11.75;5.97;;;9.10;99.90;;;;;;5030520;28;20021;-78
2021/04/23 04:02:12;;;;;;;12.43;5.90;;;9.10;99.90;;;;;;5030071;28;20025;-79
2021/04/23 04:04:37;;;;;;;12.73;6.40;;;9.10;99.90;;;;;;5030083;28;20056;-78
2021/04/23 04:07:03;;;;;;;9.93;6.45;;;9.20;99.90;;;;;;5029725;28;20022;-78
2021/04/23 04:09:29;;;;;;;15.50;6.85;;;9.30;99.90;;;;;;5030559;28;20356;-79
2021/04/23 04:11:55;;;;;;;14.88;6.82;;;9.40;99.90;;;;;;5029855;28;20022;-79
2021/04/23 04:14:21;;;;;;;17.55;8.00;;;9.40;99.90;;;;;;5025806;28;20033;-79
2021/04/23 04:16:46;;;;;;;15.68;6.28;;;9.50;99.90;;;;;;5029875;28;20014;-79
2021/04/23 04:19:12;;;;;;;13.73;6.60;;;9.50;99.90;;;;;;5030157;28;20028;-79
2021/04/23 04:21:38;;;;;;;11.23;6.28;;;9.50;99.90;;;;;;5029911;28;20049;-79
2021/04/23 04:24:04;;;;;;;12.30;5.85;;;9.50;99.90;;;;;;5030568;28;20021;-77
2021/04/23 04:26:30;;;;;;;8.15;6.18;;;9.50;99.90;;;;;;5030219;28;20037;-79
2021/04/23 04:28:56;;;;;;;11.10;5.63;;;9.60;99.90;;;;;;5030625;28;20030;-79
2021/04/23 04:31:22;;;;;;;9.18;5.25;;;9.80;99.90;;;;;;5030165;28;20055;-78
2021/04/23 04:33:50;;;;;;;11.93;5.40;;;10.00;99.90;;;;;;5030722;28;20121;-79
2021/04/23 04:36:16;;;;;;;11.68;6.13;;;10.10;99.90;;;;;;5030174;28;20030;-79
2021/04/23 04:38:42;;;;;;;9.52;5.57;;;10.10;99.90;;;;;;5030323;28;20053;-79
2021/04/23 04:41:08;;;;;;;11.48;5.88;;;10.00;99.90;;;;;;5029678;28;20080;-78
2021/04/23 04:43:34;;;;;;;10.20;5.78;;;9.90;99.90;;;;;;5030183;28;20025;-79
2021/04/23 04:46:03;;;;;;;11.23;5.40;;;9.80;99.90;;;;;;5029367;28;20112;-79
2021/04/23 04:48:28;;;;;;;9.82;6.93;;;9.60;99.90;;;;;;5029898;28;20034;-79
2021/04/23 04:50:57;;;;;;;12.70;7.53;;;9.50;99.90;;;;;;5030172;28;20614;-78
2021/04/23 04:53:27;;;;;;;15.15;6.07;;;9.50;99.90;;;;;;5044998;28;20496;-78
2021/04/23 04:55:56;;;;;;;19.33;6.10;;;9.50;99.90;;;;;;5029542;28;20030;-79
2021/04/23 04:58:27;;;;;;;11.38;5.68;;;9.40;99.90;;;;;;5029252;28;20022;-80
2021/04/23 05:00:52;;;;;;;9.10;5.70;;;9.50;99.90;;;;;;5030190;28;20022;-79
2021/04/23 05:03:18;;;;;;;11.82;6.00;;;9.50;99.90;;;;;;5029957;28;20025;-78
2021/04/23 05:05:45;;;;;;;8.55;4.97;;;9.50;99.90;;;;;;5030232;28;20480;-78
2021/04/23 05:08:11;;;;;;;11.52;6.20;;;9.60;99.90;;;;;;5051621;28;20026;-79
2021/04/23 05:10:37;;;;;;;13.88;5.20;;;9.80;99.90;;;;;;5055871;28;20037;-79
2021/04/23 05:13:03;;;;;;;8.13;5.20;;;10.00;99.90;;;;;;5034839;28;20377;-79
2021/04/23 05:15:29;;;;;;;11.95;4.60;;;10.30;99.90;;;;;;5054001;28;20093;-81
2021/04/23 05:17:55;;;;;;;11.75;5.18;;;10.60;99.90;;;;;;5043895;28;20029;-82
2021/04/23 05:20:22;;;;;;;11.00;5.60;;;10.60;99.90;;;;;;5040036;28;20095;-82
2021/04/23 05:22:48;;;;;;;18.20;5.82;;;10.70;99.90;;;;;;5036000;28;20045;-83
2021/04/23 05:25:17;;;;;;;11.53;4.97;;;10.70;99.90;;;;;;5037775;28;20111;-82
2021/04/23 05:27:43;;;;;;;11.82;4.85;;;10.80;99.90;;;;;;5036092;28;20496;-83
2021/04/23 05:30:12;;;;;;;16.10;5.10;;;10.90;99.90;;;;;;5050985;28;20449;-84
2021/04/23 05:32:39;;;;;;;9.32;4.72;;;11.00;99.90;;;;;;5031203;28;20068;-80
2021/04/23 05:35:07;;;;;;;7.63;5.05;;;11.20;99.90;;;;;;5032336;28;20025;-80
2021/04/23 05:37:33;;;;;;;14.82;5.18;;;11.40;99.90;;;;;;5033170;28;20500;-80
2021/04/23 05:39:59;;;;;;;15.52;4.95;;;11.50;99.90;;;;;;5032699;28;20025;-86
2021/04/23 05:42:25;;;;;;;6.88;4.85;;;11.70;99.90;;;;;;5045215;28;20061;-78
2021/04/23 05:44:51;;;;;;;8.88;5.45;;;11.80;99.90;;;;;;5030066;28;20029;-79
2021/04/23 05:47:16;;;;;;;8.15;4.63;;;11.90;99.90;;;;;;5030912;28;20033;-79
2021/04/23 05:49:42;;;;;;;13.40;5.88;;;12.00;99.90;;;;;;5031122;28;20078;-80
2021/04/23 05:52:09;;;;;;;11.50;5.65;;;12.20;99.90;;;;;;5032198;28;20025;-78
2021/04/23 05:54:35;;;;;;;6.90;4.70;;;12.50;99.90;;;;;;5032154;28;20073;-79
2021/04/23 05:57:02;;;;;;;10.37;5.40;;;12.60;99.90;;;;;;5027398;28;20048;-79
2021/04/23 05:59:28;;;;;;;9.10;4.45;;;12.80;99.90;;;;;;5031250;28;20826;-80
2021/04/23 06:01:53;;;;;;;7.18;4.97;;;12.90;99.90;;;;;;5023572;28;20022;-80
2021/04/23 06:04:19;;;;;;;8.80;5.18;;;12.90;99.90;;;;;;5030667;28;20380;-78
2021/04/23 06:06:45;;;;;;;11.13;5.63;;;12.90;99.90;;;;;;5031646;28;20056;-79
2021/04/23 06:09:11;;;;;;;8.98;4.65;;;13.10;99.90;;;;;;5032892;28;20051;-79
2021/04/23 06:11:40;;;;;;;8.45;4.55;;;13.20;99.90;;;;;;5032571;28;20031;-84
2021/04/23 06:14:06;;;;;;;15.45;5.78;;;13.20;99.90;;;;;;5032567;28;20037;-78
2021/04/23 06:16:31;;;;;;;9.02;4.65;;;13.20;99.90;;;;;;5031023;28;20128;-79
2021/04/23 06:18:58;;;;;;;7.28;4.82;;;13.30;99.90;;;;;;5032016;28;20495;-85
2021/04/23 06:21:24;;;;;;;6.83;4.60;;;13.30;99.90;;;;;;5032517;28;20059;-84
2021/04/23 06:23:49;;;;;;;5.97;4.80;;;13.40;99.90;;;;;;5033300;28;20276;-84
2021/04/23 06:26:16;;;;;;;6.65;5.18;;;13.50;99.90;;;;;;5031170;28;20048;-84
2021/04/23 06:28:44;;;;;;;10.35;5.30;;;13.60;99.90;;;;;;5033350;28;20033;-81
2021/04/23 06:31:11;;;;;;;7.65;4.95;;;13.80;99.90;;;;;;5031961;28;20075;-80
2021/04/23 06:33:39;;;;;;;7.38;5.43;;;13.90;99.90;;;;;;5032426;28;20061;-81
2021/04/23 06:36:06;;;;;;;11.98;5.78;;;14.00;99.90;;;;;;5031940;28;20496;-80
2021/04/23 06:38:32;;;;;;;;;;;14.20;99.90;;;;;;5047865;28;20395;-79
2021/04/23 06:40:58;;;;;;;9.35;5.78;;;14.20;99.90;;;;;;5047363;28;19995;-81
2021/04/23 06:43:25;;;;;;;11.35;6.43;;;14.40;99.90;;;;;;5033904;28;20028;-81
2021/04/23 06:45:51;;;;;;;7.83;5.60;;;14.40;99.30;;;;;;5031615;28;20095;-81
2021/04/23 06:48:18;;;;;;;7.97;6.13;;;14.50;99.20;;;;;;5032138;28;20075;-79
2021/04/23 06:50:45;;;;;;;8.63;5.55;;;14.60;99.90;;;;;;5042055;28;20039;-80
2021/04/23 06:53:11;;;;;;;15.13;5.53;;;14.70;99.30;;;;;;5032332;28;20042;-81
2021/04/23 06:55:37;;;;;;;9.00;6.03;;;14.70;99.10;;;;;;5031550;28;20104;-81
2021/04/23 06:58:04;;;;;;;13.93;5.77;;;14.80;98.40;;;;;;5030886;28;20363;-80
2021/04/23 07:00:32;;;;;;;11.93;5.35;;;14.90;99.40;;;;;;5031647;28;20040;-80
2021/04/23 07:03:01;;;;;;;15.35;5.45;;;14.90;98.20;;;;;;5031032;28;20044;-81
2021/04/23 07:05:28;;;;;;;13.23;5.93;;;14.90;98.50;;;;;;5031368;28;20049;-80
2021/04/23 07:07:54;;;;;;;11.20;6.00;;;15.00;97.80;;;;;;5030803;28;20032;-79
2021/04/23 07:10:23;;;;;;;13.05;6.32;;;15.00;98.20;;;;;;5032203;28;20385;-80
2021/04/23 07:12:49;;;;;;;6.93;5.25;;;15.10;98.10;;;;;;5030955;28;20514;-81
2021/04/23 07:15:18;;;;;;;10.37;5.53;;;15.20;97.50;;;;;;5030933;28;20378;-80
2021/04/23 07:17:45;;;;;;;8.10;5.47;;;15.30;97.80;;;;;;5024240;28;20034;-80
2021/04/23 07:20:12;;;;;;;8.32;5.13;;;15.30;96.90;;;;;;5026876;28;20571;-80
2021/04/23 07:22:38;;;;;;;9.68;5.60;;;15.40;96.40;;;;;;5027571;28;20144;-79
2021/04/23 07:25:04;;;;;;;9.27;5.90;;;15.40;97.20;;;;;;5029578;28;20108;-78
2021/04/23 07:27:34;;;;;;;12.02;5.82;;;15.40;96.10;;;;;;5030613;28;20496;-79
2021/04/23 07:30:02;;;;;;;9.93;5.45;;;15.40;96.60;;;;;;5029702;28;20042;-78
2021/04/23 07:32:27;;;;;;;8.48;5.70;;;15.50;95.60;;;;;;5030432;28;20072;-78
2021/04/23 07:34:53;;;;;;;8.13;5.40;;;15.60;95.00;;;;;;5030372;28;20127;-79
2021/04/23 07:37:18;;;;;;;10.23;5.55;;;15.70;95.30;;;;;;5030252;28;20041;-78
2021/04/23 07:39:44;;;;;;;6.95;5.47;;;15.70;95.40;;;;;;5030216;28;20022;-79
2021/04/23 07:42:13;;;;;;;10.10;5.38;;;15.70;95.70;;;;;;5030220;28;20120;-79
2021/04/23 07:44:38;;;;;;;7.97;5.55;;;15.90;94.90;;;;;;5030031;28;20064;-79
2021/04/23 07:47:04;;;;;;;9.55;5.30;;;15.90;94.60;;;;;;5030248;28;20033;-78
2021/04/23 07:49:30;;;;;;;7.13;5.15;;;16.00;94.20;;;;;;5030029;28;20101;-79
2021/04/23 07:51:56;;;;;;;9.90;4.65;;;16.10;94.20;;;;;;5029749;28;20110;-80
2021/04/23 07:54:22;;;;;;;8.32;5.30;;;16.10;94.40;;;;;;5030469;28;20078;-81
2021/04/23 07:56:47;;;;;;;7.30;5.05;;;16.20;94.90;;;;;;5030040;28;20029;-79
2021/04/23 07:59:13;;;;;;;11.38;5.05;;;16.30;94.30;;;;;;5030962;28;20112;-79
2021/04/23 08:01:39;;;;;;;9.02;5.38;;;16.30;92.50;;;;;;5030046;28;20030;-79
2021/04/23 08:04:05;;;;;;;9.52;5.40;;;16.40;93.80;;;;;;5029901;28;20374;-80
2021/04/23 08:06:31;;;;;;;10.18;5.63;;;16.40;91.70;;;;;;5028748;28;20039;-81
2021/04/23 08:08:57;;;;;;;13.98;5.40;;;16.50;90.10;;;;;;5028092;28;20399;-80
2021/04/23 08:11:23;;;;;;;19.58;4.88;;;16.60;91.80;;;;;;5028107;28;20030;-80
2021/04/23 08:13:49;;;;;;;6.60;4.85;;;16.60;92.10;;;;;;5027507;28;20038;-79
2021/04/23 08:16:16;;;;;;;7.88;5.55;;;16.70;90.10;;;;;;5027663;28;20021;-80
2021/04/23 08:18:42;;;;;;;9.20;4.88;;;16.70;91.40;;;;;;5025675;28;20033;-78
2021/04/23 08:21:09;;;;;;;7.10;5.00;;;16.80;90.70;;;;;;5026788;28;20033;-77
2021/04/23 08:23:36;;;;;;;10.90;5.85;;;16.80;90.00;;;;;;5035248;28;20392;-79
2021/04/23 08:26:03;;;;;;;8.55;4.97;;;16.80;90.30;;;;;;5027120;28;20502;-77
2021/04/23 08:28:35;;;;;;;10.25;4.93;;;16.90;90.90;;;;;;5023352;28;20022;-78
2021/04/23 08:31:01;;;;;;;7.03;4.40;;;16.90;90.30;;;;;;5027136;28;20029;-79
2021/04/23 08:33:26;;;;;;;10.63;5.05;;;17.00;90.50;;;;;;5027002;28;20404;-78
2021/04/23 08:35:52;;;;;;;9.32;4.95;;;17.20;88.60;;;;;;5025973;28;20033;-80
2021/04/23 08:38:18;;;;;;;7.80;4.75;;;17.30;87.90;;;;;;5027368;28;20021;-77
2021/04/23 08:40:47;;;;;;;8.50;4.93;;;17.30;86.30;;;;;;5027460;28;20109;-79
2021/04/23 08:43:13;;;;;;;7.95;4.57;;;17.40;85.80;;;;;;5029113;28;20041;-78
2021/04/23 08:45:38;;;;;;;7.90;5.45;;;17.50;86.70;;;;;;5029682;28;20033;-77
2021/04/23 08:48:06;;;;;;;10.27;5.20;;;17.50;79.40;;;;;;5030228;28;20026;-80
2021/04/23 08:50:32;;;;;;;7.40;4.25;;;17.50;82.80;;;;;;5031515;28;20207;-76
2021/04/23 08:52:59;;;;;;;7.10;4.50;;;17.60;81.20;;;;;;5031151;28;20504;-78
2021/04/23 08:55:26;;;;;;;9.00;4.57;;;17.70;79.70;;;;;;5031336;28;20029;-80
2021/04/23 08:57:53;;;;;;;8.20;4.60;;;17.70;79.50;;;;;;5031006;28;20276;-80
2021/04/23 09:00:20;;;;;;;8.57;4.78;;;17.70;80.70;;;;;;5029494;28;20031;-82
2021/04/23 09:02:48;;;;;;;5.15;3.65;;;17.80;78.30;;;;;;5031295;28;20060;-83
2021/04/23 09:05:16;;;;;;;6.35;3.28;;;17.80;76.30;;;;;;5031911;28;20108;-80
2021/04/23 09:07:56;;;;;;;8.50;4.43;;;17.90;75.50;;;;;;5022648;28;20021;-79
2021/04/23 09:10:22;;;;;;;6.55;4.25;;;18.10;75.80;;;;;;5045833;28;20041;-78
2021/04/23 09:13:23;;;;;;;10.45;3.97;;;18.20;74.10;;;;;;5029087;28;20615;-80
2021/04/23 09:15:49;;;;;;;7.90;4.38;;;18.20;71.40;;;;;;5031229;28;20052;-79
2021/04/23 09:18:24;;;;;;;13.10;3.78;;;18.20;71.70;;;;;;5032443;28;20038;-79
2021/04/23 09:21:03;;;;;;;8.48;3.80;;;18.20;68.50;;;;;;5052515;28;20044;-81
2021/04/23 09:23:29;;;;;;;13.35;4.35;;;18.30;69.50;;;;;;5042222;28;20092;-78
2021/04/23 09:25:57;;;;;;;13.30;4.18;;;18.40;70.40;;;;;;5030342;28;20021;-80
2021/04/23 09:28:35;;;;;;;13.77;4.07;;;18.40;67.10;;;;;;5040208;28;20033;-80
2021/04/23 09:31:19;;;;;;;;;;;18.40;73.20;;;;;;5049660;28;20459;-78
2021/04/23 09:34:07;;;;;;;8.55;3.65;;;18.40;66.60;;;;;;5047848;28;20486;-79
2021/04/23 09:36:37;;;;;;;6.93;4.07;;;18.50;68.60;;;;;;5028657;28;20029;-80
2021/04/23 09:39:13;;;;;;;9.45;4.32;;;18.60;64.90;;;;;;5033214;28;20263;-79
2021/04/23 09:41:40;;;;;;;8.13;4.00;;;18.60;64.60;;;;;;5032482;28;20088;-79
2021/04/23 09:44:27;;;;;;;6.30;3.45;;;18.70;67.40;;;;;;5033072;28;20411;-78
2021/04/23 09:47:00;;;;;;;7.90;3.70;;;18.80;61.40;;;;;;5032497;28;20045;-79
2021/04/23 09:49:26;;;;;;;5.40;4.25;;;18.90;62.10;;;;;;5032666;28;20022;-79
2021/04/23 09:51:52;;;;;;;8.27;3.50;;;18.90;59.20;;;;;;5032333;28;20021;-83
2021/04/23 09:54:24;;;;;;;4.90;3.28;;;18.80;57.00;;;;;;5030747;28;20288;-79
2021/04/23 09:56:52;;;;;;;7.88;3.63;;;18.80;62.30;;;;;;5032083;28;20083;-79
2021/04/23 09:59:24;;;;;;;;;;;18.90;61.10;;;;;;5032838;28;20014;-84
2021/04/23 10:02:01;;;;;;;6.78;3.75;;;19.10;61.70;;;;;;5046665;28;19956;-81
2021/04/23 10:04:34;;;;;;;8.98;3.10;;;19.30;59.80;;;;;;5045104;28;20017;-78
2021/04/23 10:07:12;;;;;;;5.97;3.03;;;19.40;58.80;;;;;;5030009;28;20021;-79
2021/04/23 10:09:50;;;;;;;7.53;3.42;;;19.40;62.40;;;;;;5030558;28;20022;-79
2021/04/23 10:12:31;;;;;;;5.43;3.10;;;19.50;55.70;;;;;;5030122;28;20057;-77
2021/04/23 10:15:16;;;;;;;6.82;3.28;;;19.40;58.30;;;;;;5028986;28;20492;-80
2021/04/23 10:17:44;;;;;;;7.15;2.70;;;19.40;59.90;;;;;;5039917;28;20065;-79
2021/04/23 10:20:13;;;;;;;9.82;3.22;;;19.50;61.80;;;;;;5030753;28;20030;-78
2021/04/23 10:22:39;;;;;;;5.28;2.80;;;19.60;59.80;;;;;;5046120;28;20040;-78
2021/04/23 10:25:06;;;;;;;5.10;3.23;;;19.70;61.40;;;;;;5031729;28;20105;-78
2021/04/23 10:27:34;;;;;;;9.23;3.25;;;19.70;54.70;;;;;;5031589;28;20068;-79
2021/04/23 10:30:13;;;;;;;6.15;3.50;;;19.60;56.30;;;;;;5031637;28;20033;-79
2021/04/23 10:32:39;;;;;;;5.32;2.63;;;19.60;52.80;;;;;;5029968;28;20129;-78
2021/04/23 10:35:06;;;;;;;8.00;3.90;;;19.50;52.40;;;;;;5031205;28;20013;-80
2021/04/23 10:37:32;;;;;;;8.32;2.60;;;19.40;56.70;;;;;;5031222;28;20067;-79
2021/04/23 10:39:59;;;;;;;9.70;3.15;;;19.60;53.10;;;;;;5031565;28;20021;-80
2021/04/23 10:42:58;;;;;;;13.77;4.70;;;19.70;59.50;;;;;;5031297;28;20099;-79
2021/04/23 10:45:25;;;;;;;5.15;3.55;;;19.50;62.90;;;;;;5019119;28;20040;-78
2021/04/23 10:47:52;;;;;;;12.37;4.03;;;19.30;65.30;;;;;;5031157;28;20017;-79
2021/04/23 10:50:21;;;;;;;5.50;3.20;;;19.00;68.50;;;;;;5031681;28;20491;-81
2021/04/23 10:53:05;;;;;;;7.53;3.00;;;18.80;60.00;;;;;;5031537;28;20048;-78
2021/04/23 10:55:50;;;;;;;5.10;3.25;;;19.00;63.60;;;;;;5031294;28;20108;-77
2021/04/23 10:58:25;;;;;;;5.43;3.22;;;19.30;61.60;;;;;;5030471;28;20028;-79
2021/04/23 11:00:51;;;;;;;6.55;3.88;;;19.20;62.50;;;;;;5031184;28;20084;-79
2021/04/23 11:03:34;;;;;;;8.45;3.67;;;18.90;63.50;;;;;;5031760;28;20593;-79
2021/04/23 11:06:00;;;;;;;8.57;4.00;;;18.50;67.40;;;;;;5031203;28;20091;-79
2021/04/23 11:08:27;;;;;;;10.15;3.55;;;18.50;70.80;;;;;;5031956;28;20026;-79
2021/04/23 11:11:02;;;;;;;12.55;3.95;;;18.60;69.50;;;;;;5030577;28;20025;-79
2021/04/23 11:13:33;;;;;;;8.68;5.47;;;18.50;72.80;;;;;;5027544;28;20045;-79
2021/04/23 11:18:53;;;;;;;11.63;3.67;;;18.20;69.10;;;;;;5030103;28;20026;-79
2021/04/23 11:21:28;;;;;;;7.40;4.07;;;18.20;69.40;;;;;;5031418;28;20025;-79
2021/04/23 11:24:16;;;;;;;8.43;3.33;;;18.40;69.80;;;;;;5030257;28;20052;-79
2021/04/23 11:27:03;;;;;;;13.45;3.20;;;18.50;67.90;;;;;;5047404;28;20033;-80
2021/04/23 11:29:52;;;;;;;6.55;3.13;;;18.60;70.80;;;;;;5031395;28;20022;-79
2021/04/23 11:32:28;;;;;;;4.80;3.08;;;18.70;64.00;;;;;;5032817;28;20041;-80
2021/04/23 11:35:12;;;;;;;8.20;3.50;;;18.50;63.20;;;;;;5027779;28;20053;-79
2021/04/23 11:37:40;;;;;;;7.35;3.22;;;18.50;64.00;;;;;;5027713;28;20065;-81
2021/04/23 11:40:12;;;;;;;7.38;3.10;;;18.50;63.10;;;;;;5058257;28;20548;-78
2021/04/23 11:42:45;;;;;;;6.18;3.05;;;18.30;62.00;;;;;;5033261;28;20061;-79
2021/04/23 11:45:13;;;;;;;6.35;3.47;;;18.40;61.60;;;;;;5011484;28;20022;-79
2021/04/23 11:47:44;;;;;;;8.55;2.80;;;18.60;61.30;;;;;;5025544;28;20036;-80
2021/04/23 11:50:16;;;;;;;11.63;3.70;;;18.70;62.20;;;;;;5032127;28;20028;-78
2021/04/23 11:52:45;;;;;;;5.38;2.67;;;18.90;61.40;;;;;;5032035;28;20033;-77
2021/04/23 11:55:15;;;;;;;4.13;2.78;;;18.80;60.10;;;;;;5031596;28;20091;-84
2021/04/23 11:57:43;;;;;;;4.80;2.50;;;19.00;61.30;;;;;;5032893;28;20013;-82
2021/04/23 12:00:13;;;;;;;5.40;3.00;;;19.00;59.50;;;;;;5031871;28;20440;-80
2021/04/23 12:03:06;;;;;;;6.00;3.47;;;19.00;59.10;;;;;;5028067;28;20021;-79
2021/04/23 12:05:36;;;;;;;4.05;2.67;;;19.00;57.90;;;;;;5030929;28;20100;-80
2021/04/23 12:08:12;;;;;;;8.07;3.63;;;19.40;60.70;;;;;;5028081;28;20619;-80
2021/04/23 12:10:42;;;;;;;4.68;2.60;;;21.00;56.80;;;;;;5028683;28;20021;-83
2021/04/23 12:13:09;;;;;;;4.72;2.50;;;22.20;50.90;;;;;;5028505;28;20518;-80
2021/04/23 12:15:39;;;;;;;7.45;3.13;;;22.50;52.80;;;;;;5028070;28;20037;-79
2021/04/23 12:18:07;;;;;;;7.45;3.05;;;23.00;51.40;;;;;;5031463;28;20615;-80
2021/04/23 12:20:37;;;;;;;19.88;3.67;;;23.30;52.50;;;;;;5032592;28;20415;-78
2021/04/23 12:23:08;;;;;;;3.13;2.58;;;23.50;52.70;;;;;;5033111;28;20509;-78
2021/04/23 12:25:39;;;;;;;7.95;2.70;;;24.40;50.90;;;;;;5032499;28;20026;-78
2021/04/23 12:28:35;;;;;;;4.38;2.67;;;24.90;48.00;;;;;;5031869;28;20029;-80
2021/04/23 12:31:06;;;;;;;7.05;3.20;;;25.70;45.60;;;;;;5033162;28;20025;-79
2021/04/23 12:34:14;;;;;;;3.10;2.30;;;25.90;42.60;;;;;;5033156;28;20543;-79
2021/04/23 12:36:45;;;;;;;7.25;3.45;;;25.50;40.40;;;;;;5031328;28;20411;-78
2021/04/23 12:39:22;;;;;;;3.90;2.22;;;24.80;41.80;;;;;;5032857;28;20087;-81
2021/04/23 12:41:49;;;;;;;3.80;2.40;;;24.40;41.20;;;;;;5030142;28;20049;-80
2021/04/23 12:44:17;;;;;;;4.95;2.53;;;24.70;43.70;;;;;;5031389;28;20383;-79
2021/04/23 12:46:54;;;;;;;7.03;2.50;;;26.00;40.20;;;;;;5031571;28;20026;-83
2021/04/23 12:49:23;;;;;;;5.72;2.22;;;26.70;40.50;;;;;;5031786;28;20542;-79
2021/04/23 12:51:57;;;;;;;4.57;2.13;;;26.90;40.10;;;;;;5031072;28;20029;-77
2021/04/23 12:54:40;;;;;;;4.93;2.55;;;26.80;37.00;;;;;;5030230;28;20050;-82
2021/04/23 12:57:11;;;;;;;4.90;2.72;;;26.90;37.20;;;;;;5031547;28;20026;-78
2021/04/23 12:59:47;;;;;;;6.85;2.40;;;26.00;37.20;;;;;;5031371;28;20125;-79
2021/04/23 13:02:25;;;;;;;8.55;2.40;;;25.90;38.70;;;;;;5031311;28;20059;-77